sensor_id;sensor_type;location;lat;lon;timestamp;pressure;altitude;pressure_sealevel;temperature;humidity
498;BME280;39559;48.630;9.162;2023-01-28T00:00:13;97992.31;;;-1.29;100.00
498;BME280;39559;48.630;9.162;2023-01-28T00:02:39;97992.31;;;-1.29;100.00
498;BME280;39559;48.630;9.162;2023-01-28T00:05:05;97989.00;;;-1.20;100.00
498;BME280;39559;48.630;9.162;2023-01-28T00:07:30;97981.22;;;-1.32;100.00
498;BME280;39559;48.630;9.162;2023-01-28T00:12:06;97984.72;;;-1.24;100.00
498;BME280;39559;48.630;9.162;2023-01-28T00:14:31;97980.38;;;-1.31;100.00
498;BME280;39559;48.630;9.162;2023-01-28T00:16:57;97980.56;;;-1.18;100.00
498;BME280;39559;48.630;9.162;2023-01-28T00:19:22;97987.16;;;-1.33;100.00
498;BME280;39559;48.630;9.162;2023-01-28T00:21:48;97982.06;;;-1.32;100.00
498;BME280;39559;48.630;9.162;2023-01-28T00:24:13;97973.56;;;-1.34;100.00
498;BME280;39559;48.630;9.162;2023-01-28T00:26:39;97980.34;;;-1.34;100.00
498;BME280;39559;48.630;9.162;2023-01-28T00:29:05;97978.88;;;-1.16;100.00
498;BME280;39559;48.630;9.162;2023-01-28T00:31:31;97971.22;;;-1.16;100.00
498;BME280;39559;48.630;9.162;2023-01-28T00:36:08;97971.22;;;-1.16;100.00
498;BME280;39559;48.630;9.162;2023-01-28T00:38:34;97976.34;;;-1.14;100.00
498;BME280;39559;48.630;9.162;2023-01-28T00:41:12;97965.06;;;-1.33;100.00
498;BME280;39559;48.630;9.162;2023-01-28T00:43:38;97965.09;;;-1.31;100.00
498;BME280;39559;48.630;9.162;2023-01-28T00:46:05;97968.50;;;-1.31;100.00
498;BME280;39559;48.630;9.162;2023-01-28T00:48:35;97968.63;;;-1.22;100.00
498;BME280;39559;48.630;9.162;2023-01-28T00:51:01;97971.00;;;-1.34;100.00
498;BME280;39559;48.630;9.162;2023-01-28T00:53:28;97969.50;;;-1.17;100.00
498;BME280;39559;48.630;9.162;2023-01-28T00:55:53;97968.56;;;-1.25;100.00
498;BME280;39559;48.630;9.162;2023-01-28T01:00:10;97973.66;;;-1.25;100.00
498;BME280;39559;48.630;9.162;2023-01-28T01:02:36;97967.63;;;-1.31;100.00
498;BME280;39559;48.630;9.162;2023-01-28T01:05:01;97970.13;;;-1.38;100.00
498;BME280;39559;48.630;9.162;2023-01-28T01:07:29;97967.69;;;-1.28;100.00
498;BME280;39559;48.630;9.162;2023-01-28T01:10:13;97973.63;;;-1.28;100.00
498;BME280;39559;48.630;9.162;2023-01-28T01:12:39;97973.56;;;-1.34;100.00
498;BME280;39559;48.630;9.162;2023-01-28T01:15:07;97976.97;;;-1.32;100.00
498;BME280;39559;48.630;9.162;2023-01-28T01:17:35;97980.41;;;-1.30;100.00
498;BME280;39559;48.630;9.162;2023-01-28T01:20:05;97978.78;;;-1.25;100.00
498;BME280;39559;48.630;9.162;2023-01-28T01:24:12;97974.41;;;-1.33;100.00
498;BME280;39559;48.630;9.162;2023-01-28T01:26:37;97977.88;;;-1.28;100.00
498;BME280;39559;48.630;9.162;2023-01-28T01:29:03;97977.13;;;-1.21;100.00
498;BME280;39559;48.630;9.162;2023-01-28T01:31:28;97978.97;;;-1.06;100.00
498;BME280;39559;48.630;9.162;2023-01-28T01:33:54;97985.72;;;-1.11;100.00
498;BME280;39559;48.630;9.162;2023-01-28T01:36:19;97988.84;;;-1.34;100.00
498;BME280;39559;48.630;9.162;2023-01-28T01:38:46;97982.22;;;-1.21;100.00
498;BME280;39559;48.630;9.162;2023-01-28T01:41:27;97978.81;;;-1.22;100.00
498;BME280;39559;48.630;9.162;2023-01-28T01:43:56;97979.66;;;-1.21;100.00
498;BME280;39559;48.630;9.162;2023-01-28T01:48:18;97979.59;;;-1.27;100.00
498;BME280;39559;48.630;9.162;2023-01-28T01:50:55;97981.38;;;-1.22;100.00
498;BME280;39559;48.630;9.162;2023-01-28T01:53:24;97984.81;;;-1.18;100.00
498;BME280;39559;48.630;9.162;2023-01-28T01:55:54;97984.78;;;-1.20;100.00
498;BME280;39559;48.630;9.162;2023-01-28T01:58:26;97988.19;;;-1.18;100.00
498;BME280;39559;48.630;9.162;2023-01-28T02:00:53;97995.03;;;-1.13;100.00
498;BME280;39559;48.630;9.162;2023-01-28T02:03:28;98001.59;;;-1.34;100.00
498;BME280;39559;48.630;9.162;2023-01-28T02:05:55;97992.44;;;-1.18;100.00
498;BME280;39559;48.630;9.162;2023-01-28T02:08:21;97996.53;;;-1.29;100.00
498;BME280;39559;48.630;9.162;2023-01-28T02:12:41;97992.44;;;-1.17;100.00
498;BME280;39559;48.630;9.162;2023-01-28T02:15:11;97992.38;;;-1.23;100.00
498;BME280;39559;48.630;9.162;2023-01-28T02:17:39;97999.06;;;-1.32;100.00
498;BME280;39559;48.630;9.162;2023-01-28T02:20:23;97998.31;;;-1.22;100.00
498;BME280;39559;48.630;9.162;2023-01-28T02:25:29;98001.75;;;-1.22;100.00
498;BME280;39559;48.630;9.162;2023-01-28T02:30:42;98001.75;;;-1.22;100.00
498;BME280;39559;48.630;9.162;2023-01-28T02:33:13;98001.81;;;-1.16;100.00
498;BME280;39559;48.630;9.162;2023-01-28T02:36:41;98001.69;;;-1.25;100.00
498;BME280;39559;48.630;9.162;2023-01-28T02:39:15;98003.47;;;-1.19;100.00
498;BME280;39559;48.630;9.162;2023-01-28T02:41:49;97996.56;;;-1.26;100.00
498;BME280;39559;48.630;9.162;2023-01-28T02:44:17;97995.63;;;-1.36;100.00
498;BME280;39559;48.630;9.162;2023-01-28T02:46:43;98000.84;;;-1.25;100.00
498;BME280;39559;48.630;9.162;2023-01-28T03:00:32;98007.72;;;-1.17;100.00
498;BME280;39559;48.630;9.162;2023-01-28T03:03:16;98006.03;;;-1.18;100.00
498;BME280;39559;48.630;9.162;2023-01-28T03:05:50;98002.63;;;-1.20;100.00
498;BME280;39559;48.630;9.162;2023-01-28T03:11:21;98012.81;;;-1.20;100.00
498;BME280;39559;48.630;9.162;2023-01-28T03:14:06;98012.81;;;-1.20;100.00
498;BME280;39559;48.630;9.162;2023-01-28T03:16:52;98007.72;;;-1.17;100.00
498;BME280;39559;48.630;9.162;2023-01-28T03:19:37;98007.75;;;-1.15;100.00
498;BME280;39559;48.630;9.162;2023-01-28T03:24:26;98008.63;;;-1.14;100.00
498;BME280;39559;48.630;9.162;2023-01-28T03:30:11;98006.06;;;-1.16;100.00
498;BME280;39559;48.630;9.162;2023-01-28T03:32:58;98018.03;;;-1.10;100.00
498;BME280;39559;48.630;9.162;2023-01-28T03:35:43;98007.78;;;-1.13;100.00
498;BME280;39559;48.630;9.162;2023-01-28T03:38:28;98011.25;;;-1.08;100.00
498;BME280;39559;48.630;9.162;2023-01-28T03:41:07;98010.41;;;-1.06;100.00
498;BME280;39559;48.630;9.162;2023-01-28T03:43:35;98016.28;;;-1.14;100.00
498;BME280;39559;48.630;9.162;2023-01-28T03:48:26;98012.31;;;-0.89;100.00
498;BME280;39559;48.630;9.162;2023-01-28T03:50:55;98014.63;;;-1.08;100.00
498;BME280;39559;48.630;9.162;2023-01-28T03:53:22;98017.13;;;-1.14;100.00
498;BME280;39559;48.630;9.162;2023-01-28T03:55:49;98015.25;;;-1.26;100.00
498;BME280;39559;48.630;9.162;2023-01-28T03:58:16;98022.22;;;-1.14;100.00
498;BME280;39559;48.630;9.162;2023-01-28T04:00:43;98027.22;;;-1.20;100.00
498;BME280;39559;48.630;9.162;2023-01-28T04:03:13;98027.38;;;-1.11;100.00
498;BME280;39559;48.630;9.162;2023-01-28T04:05:56;98028.13;;;-1.18;100.00
498;BME280;39559;48.630;9.162;2023-01-28T04:08:22;98020.63;;;-1.07;100.00
498;BME280;39559;48.630;9.162;2023-01-28T04:12:27;98021.41;;;-1.10;100.00
498;BME280;39559;48.630;9.162;2023-01-28T04:14:52;98020.53;;;-1.13;100.00
498;BME280;39559;48.630;9.162;2023-01-28T04:17:18;98021.59;;;-0.96;100.00
498;BME280;39559;48.630;9.162;2023-01-28T04:19:43;98022.28;;;-1.11;100.00
498;BME280;39559;48.630;9.162;2023-01-28T04:22:10;98027.34;;;-1.12;100.00
498;BME280;39559;48.630;9.162;2023-01-28T04:24:36;98033.41;;;-1.01;100.00
498;BME280;39559;48.630;9.162;2023-01-28T04:27:01;98031.72;;;-1.01;100.00
498;BME280;39559;48.630;9.162;2023-01-28T04:29:27;98035.19;;;-0.95;100.00
498;BME280;39559;48.630;9.162;2023-01-28T04:31:52;98049.50;;;-1.07;100.00
498;BME280;39559;48.630;9.162;2023-01-28T04:36:29;98046.91;;;-1.10;100.00
498;BME280;39559;48.630;9.162;2023-01-28T04:38:54;98049.41;;;-1.14;100.00
498;BME280;39559;48.630;9.162;2023-01-28T04:41:20;98051.19;;;-1.09;100.00
498;BME280;39559;48.630;9.162;2023-01-28T04:43:45;98056.50;;;-0.90;100.00
498;BME280;39559;48.630;9.162;2023-01-28T04:46:14;98061.47;;;-1.01;100.00
498;BME280;39559;48.630;9.162;2023-01-28T04:48:39;98057.94;;;-1.11;100.00
498;BME280;39559;48.630;9.162;2023-01-28T04:51:05;98060.38;;;-1.19;100.00
498;BME280;39559;48.630;9.162;2023-01-28T04:53:30;98063.94;;;-1.07;100.00
498;BME280;39559;48.630;9.162;2023-01-28T04:55:56;98068.88;;;-1.17;100.00
498;BME280;39559;48.630;9.162;2023-01-28T05:00:31;98074.03;;;-1.13;100.00
498;BME280;39559;48.630;9.162;2023-01-28T05:02:57;98067.25;;;-1.11;100.00
498;BME280;39559;48.630;9.162;2023-01-28T05:05:22;98064.69;;;-1.13;100.00
498;BME280;39559;48.630;9.162;2023-01-28T05:07:52;98061.41;;;-1.04;100.00
498;BME280;39559;48.630;9.162;2023-01-28T05:10:18;98059.66;;;-1.08;100.00
498;BME280;39559;48.630;9.162;2023-01-28T05:12:45;98063.97;;;-1.04;100.00
498;BME280;39559;48.630;9.162;2023-01-28T05:15:10;98070.75;;;-1.06;100.00
498;BME280;39559;48.630;9.162;2023-01-28T05:17:36;98074.13;;;-1.07;100.00
498;BME280;39559;48.630;9.162;2023-01-28T05:20:02;98075.22;;;-0.88;100.00
498;BME280;39559;48.630;9.162;2023-01-28T05:24:33;98078.38;;;-1.06;100.00
498;BME280;39559;48.630;9.162;2023-01-28T05:26:59;98069.03;;;-1.09;100.00
498;BME280;39559;48.630;9.162;2023-01-28T05:29:27;98066.72;;;-0.86;100.00
498;BME280;39559;48.630;9.162;2023-01-28T05:31:53;98073.25;;;-1.11;100.00
498;BME280;39559;48.630;9.162;2023-01-28T05:34:18;98068.88;;;-1.17;100.00
498;BME280;39559;48.630;9.162;2023-01-28T05:36:44;98071.47;;;-1.15;100.00
498;BME280;39559;48.630;9.162;2023-01-28T05:39:09;98071.53;;;-1.10;100.00
498;BME280;39559;48.630;9.162;2023-01-28T05:41:35;98063.59;;;-1.32;100.00
498;BME280;39559;48.630;9.162;2023-01-28T05:44:00;98072.25;;;-1.21;100.00
498;BME280;39559;48.630;9.162;2023-01-28T05:48:35;98070.53;;;-1.22;100.00
498;BME280;39559;48.630;9.162;2023-01-28T05:51:01;98083.34;;;-1.17;100.00
498;BME280;39559;48.630;9.162;2023-01-28T05:53:26;98081.66;;;-1.15;100.00
498;BME280;39559;48.630;9.162;2023-01-28T05:55:52;98071.41;;;-1.21;100.00
498;BME280;39559;48.630;9.162;2023-01-28T05:58:18;98079.94;;;-1.18;100.00
498;BME280;39559;48.630;9.162;2023-01-28T06:00:44;98080.03;;;-1.10;100.00
498;BME280;39559;48.630;9.162;2023-01-28T06:03:10;98078.34;;;-1.11;100.00
498;BME280;39559;48.630;9.162;2023-01-28T06:05:36;98086.88;;;-1.07;100.00
498;BME280;39559;48.630;9.162;2023-01-28T06:08:01;98088.53;;;-1.11;100.00
498;BME280;39559;48.630;9.162;2023-01-28T06:12:37;98095.44;;;-1.01;100.00
498;BME280;39559;48.630;9.162;2023-01-28T06:15:03;98095.44;;;-1.01;100.00
498;BME280;39559;48.630;9.162;2023-01-28T06:17:29;98096.28;;;-1.03;100.00
498;BME280;39559;48.630;9.162;2023-01-28T06:19:54;98100.63;;;-0.96;100.00
498;BME280;39559;48.630;9.162;2023-01-28T06:22:20;98105.63;;;-1.02;100.00
498;BME280;39559;48.630;9.162;2023-01-28T06:24:45;98104.84;;;-0.98;100.00
498;BME280;39559;48.630;9.162;2023-01-28T06:27:11;98104.78;;;-1.01;100.00
498;BME280;39559;48.630;9.162;2023-01-28T06:29:36;98108.97;;;-1.06;100.00
498;BME280;39559;48.630;9.162;2023-01-28T06:32:02;98113.09;;;-1.16;100.00
498;BME280;39559;48.630;9.162;2023-01-28T06:36:39;98123.22;;;-1.19;100.00
498;BME280;39559;48.630;9.162;2023-01-28T06:39:05;98126.13;;;-0.93;100.00
498;BME280;39559;48.630;9.162;2023-01-28T06:41:31;98127.84;;;-0.92;100.00
498;BME280;39559;48.630;9.162;2023-01-28T06:43:56;98132.88;;;-0.98;100.00
498;BME280;39559;48.630;9.162;2023-01-28T06:46:22;98139.50;;;-1.09;100.00
498;BME280;39559;48.630;9.162;2023-01-28T06:48:49;98142.91;;;-1.10;100.00
498;BME280;39559;48.630;9.162;2023-01-28T06:51:14;98138.88;;;-0.94;100.00
498;BME280;39559;48.630;9.162;2023-01-28T06:53:40;98140.53;;;-0.98;100.00
498;BME280;39559;48.630;9.162;2023-01-28T06:56:06;98138.13;;;-0.87;100.00
498;BME280;39559;48.630;9.162;2023-01-28T07:00:41;98152.91;;;-1.23;100.00
498;BME280;39559;48.630;9.162;2023-01-28T07:03:07;98145.44;;;-1.10;100.00
498;BME280;39559;48.630;9.162;2023-01-28T07:05:32;98148.13;;;-1.01;100.00
498;BME280;39559;48.630;9.162;2023-01-28T07:07:58;98150.63;;;-1.04;100.00
498;BME280;39559;48.630;9.162;2023-01-28T07:10:24;98143.91;;;-0.99;100.00
498;BME280;39559;48.630;9.162;2023-01-28T07:12:49;98140.47;;;-1.01;100.00
498;BME280;39559;48.630;9.162;2023-01-28T07:15:15;98148.88;;;-1.08;100.00
498;BME280;39559;48.630;9.162;2023-01-28T07:17:41;98149.75;;;-1.06;100.00
498;BME280;39559;48.630;9.162;2023-01-28T07:20:08;98151.69;;;-0.90;100.00
498;BME280;39559;48.630;9.162;2023-01-28T07:24:43;98147.56;;;-0.82;100.00
498;BME280;39559;48.630;9.162;2023-01-28T07:27:09;98156.56;;;-1.05;100.00
498;BME280;39559;48.630;9.162;2023-01-28T07:29:34;98160.28;;;-0.83;100.00
498;BME280;39559;48.630;9.162;2023-01-28T07:32:00;98161.84;;;-0.91;100.00
498;BME280;39559;48.630;9.162;2023-01-28T07:34:26;98163.59;;;-0.89;100.00
498;BME280;39559;48.630;9.162;2023-01-28T07:36:54;98163.59;;;-0.89;100.00
498;BME280;39559;48.630;9.162;2023-01-28T07:39:20;98167.66;;;-1.00;100.00
498;BME280;39559;48.630;9.162;2023-01-28T07:41:45;98163.44;;;-1.01;100.00
498;BME280;39559;48.630;9.162;2023-01-28T07:44:11;98162.69;;;-0.92;100.00
498;BME280;39559;48.630;9.162;2023-01-28T07:48:45;98174.50;;;-0.99;100.00
498;BME280;39559;48.630;9.162;2023-01-28T07:51:10;98171.19;;;-0.92;100.00
498;BME280;39559;48.630;9.162;2023-01-28T07:53:36;98179.03;;;-0.80;100.00
498;BME280;39559;48.630;9.162;2023-01-28T07:56:02;98174.84;;;-0.74;100.00
498;BME280;39559;48.630;9.162;2023-01-28T07:58:29;98183.50;;;-0.63;100.00
498;BME280;39559;48.630;9.162;2023-01-28T08:00:57;98185.81;;;-0.79;100.00
498;BME280;39559;48.630;9.162;2023-01-28T08:03:26;98185.00;;;-0.78;100.00
498;BME280;39559;48.630;9.162;2023-01-28T08:05:53;98189.28;;;-0.73;100.00
498;BME280;39559;48.630;9.162;2023-01-28T08:08:23;98197.78;;;-0.76;100.00
498;BME280;39559;48.630;9.162;2023-01-28T08:12:52;98195.22;;;-0.76;100.00
498;BME280;39559;48.630;9.162;2023-01-28T08:15:17;98190.25;;;-0.67;100.00
498;BME280;39559;48.630;9.162;2023-01-28T08:17:43;98204.72;;;-0.64;100.00
498;BME280;39559;48.630;9.162;2023-01-28T08:20:09;98198.13;;;-0.48;100.00
498;BME280;39559;48.630;9.162;2023-01-28T08:22:35;98198.88;;;-0.57;100.00
498;BME280;39559;48.630;9.162;2023-01-28T08:25:00;98191.06;;;-0.68;100.00
498;BME280;39559;48.630;9.162;2023-01-28T08:27:26;98195.50;;;-0.53;100.00
498;BME280;39559;48.630;9.162;2023-01-28T08:29:51;98203.19;;;-0.51;100.00
498;BME280;39559;48.630;9.162;2023-01-28T08:32:17;98208.28;;;-0.51;100.00
498;BME280;39559;48.630;9.162;2023-01-28T08:36:49;98204.91;;;-0.52;100.00
498;BME280;39559;48.630;9.162;2023-01-28T08:39:15;98209.19;;;-0.48;100.00
498;BME280;39559;48.630;9.162;2023-01-28T08:41:40;98207.59;;;-0.41;100.00
498;BME280;39559;48.630;9.162;2023-01-28T08:44:06;98201.53;;;-0.48;100.00
498;BME280;39559;48.630;9.162;2023-01-28T08:46:32;98205.00;;;-0.43;100.00
498;BME280;39559;48.630;9.162;2023-01-28T08:48:57;98208.44;;;-0.41;100.00
498;BME280;39559;48.630;9.162;2023-01-28T08:51:23;98212.16;;;-0.14;100.00
498;BME280;39559;48.630;9.162;2023-01-28T08:53:48;98211.00;;;-0.39;100.00
498;BME280;39559;48.630;9.162;2023-01-28T08:56:13;98211.13;;;-0.28;100.00
498;BME280;39559;48.630;9.162;2023-01-28T09:00:52;98211.19;;;-0.25;100.00
498;BME280;39559;48.630;9.162;2023-01-28T09:03:17;98218.50;;;-0.51;100.00
498;BME280;39559;48.630;9.162;2023-01-28T09:05:43;98214.38;;;-0.42;100.00
498;BME280;39559;48.630;9.162;2023-01-28T09:08:12;98214.59;;;-0.25;100.00
498;BME280;39559;48.630;9.162;2023-01-28T09:10:38;98219.00;;;-0.11;100.00
498;BME280;39559;48.630;9.162;2023-01-28T09:13:12;98220.50;;;-0.29;100.00
498;BME280;39559;48.630;9.162;2023-01-28T09:15:38;98229.84;;;-0.28;100.00
498;BME280;39559;48.630;9.162;2023-01-28T09:18:04;98220.63;;;-0.16;100.00
498;BME280;39559;48.630;9.162;2023-01-28T09:20:30;98219.63;;;-0.29;100.00
498;BME280;39559;48.630;9.162;2023-01-28T09:24:53;98218.47;;;0.19;100.00
498;BME280;39559;48.630;9.162;2023-01-28T09:27:19;98223.19;;;-0.18;100.00
498;BME280;39559;48.630;9.162;2023-01-28T09:29:44;98219.72;;;-0.20;100.00
498;BME280;39559;48.630;9.162;2023-01-28T09:32:10;98225.00;;;-0.08;100.00
498;BME280;39559;48.630;9.162;2023-01-28T09:34:35;98233.84;;;0.22;100.00
498;BME280;39559;48.630;9.162;2023-01-28T09:37:01;98235.34;;;0.05;100.00
498;BME280;39559;48.630;9.162;2023-01-28T09:39:27;98238.53;;;-0.13;100.00
498;BME280;39559;48.630;9.162;2023-01-28T09:45:01;98237.09;;;0.09;100.00
498;BME280;39559;48.630;9.162;2023-01-28T09:48:56;98238.66;;;-0.03;100.00
498;BME280;39559;48.630;9.162;2023-01-28T09:51:41;98242.94;;;-0.03;100.00
498;BME280;39559;48.630;9.162;2023-01-28T09:54:35;98254.09;;;0.07;100.00
498;BME280;39559;48.630;9.162;2023-01-28T09:57:11;98250.63;;;0.02;100.00
498;BME280;39559;48.630;9.162;2023-01-28T09:59:37;98251.59;;;0.10;100.00
498;BME280;39559;48.630;9.162;2023-01-28T10:04:58;98248.34;;;0.25;100.00
498;BME280;39559;48.630;9.162;2023-01-28T10:07:39;98254.88;;;0.01;100.00
498;BME280;39559;48.630;9.162;2023-01-28T10:10:16;98259.41;;;0.22;100.00
498;BME280;39559;48.630;9.162;2023-01-28T10:16:14;98248.94;;;0.01;100.00
498;BME280;39559;48.630;9.162;2023-01-28T10:18:49;98242.28;;;0.18;100.00
498;BME280;39559;48.630;9.162;2023-01-28T10:21:42;98246.53;;;0.16;100.00
498;BME280;39559;48.630;9.162;2023-01-28T10:24:16;98243.31;;;0.32;100.00
498;BME280;39559;48.630;9.162;2023-01-28T10:26:43;98242.41;;;0.29;100.00
498;BME280;39559;48.630;9.162;2023-01-28T10:29:22;98235.78;;;0.46;100.00
498;BME280;39559;48.630;9.162;2023-01-28T10:31:59;98240.00;;;0.43;100.00
498;BME280;39559;48.630;9.162;2023-01-28T10:36:59;98236.69;;;0.50;100.00
498;BME280;39559;48.630;9.162;2023-01-28T10:39:25;98233.91;;;0.28;100.00
498;BME280;39559;48.630;9.162;2023-01-28T10:41:52;98238.09;;;0.22;100.00
498;BME280;39559;48.630;9.162;2023-01-28T10:44:41;98241.44;;;0.17;100.00
498;BME280;39559;48.630;9.162;2023-01-28T10:47:14;98223.63;;;0.22;100.00
498;BME280;39559;48.630;9.162;2023-01-28T10:49:44;98223.72;;;0.31;100.00
498;BME280;39559;48.630;9.162;2023-01-28T10:52:13;98223.00;;;0.45;100.00
498;BME280;39559;48.630;9.162;2023-01-28T10:54:39;98223.88;;;0.47;100.00
498;BME280;39559;48.630;9.162;2023-01-28T10:57:09;98217.13;;;0.53;100.00
498;BME280;39559;48.630;9.162;2023-01-28T11:01:06;98223.06;;;0.49;100.00
498;BME280;39559;48.630;9.162;2023-01-28T11:03:32;98227.28;;;0.46;100.00
498;BME280;39559;48.630;9.162;2023-01-28T11:06:00;98233.19;;;0.43;100.00
498;BME280;39559;48.630;9.162;2023-01-28T11:08:28;98238.13;;;0.26;100.00
498;BME280;39559;48.630;9.162;2023-01-28T11:10:55;98223.63;;;0.24;100.00
498;BME280;39559;48.630;9.162;2023-01-28T11:13:29;98228.72;;;0.24;100.00
498;BME280;39559;48.630;9.162;2023-01-28T11:16:01;98234.69;;;0.21;100.00
498;BME280;39559;48.630;9.162;2023-01-28T11:18:30;98236.50;;;0.34;100.00
498;BME280;39559;48.630;9.162;2023-01-28T11:21:00;98224.78;;;0.53;100.00
498;BME280;39559;48.630;9.162;2023-01-28T11:25:15;98236.63;;;0.47;100.00
498;BME280;39559;48.630;9.162;2023-01-28T11:27:46;98224.66;;;0.41;100.00
498;BME280;39559;48.630;9.162;2023-01-28T11:30:38;98240.78;;;0.35;100.00
498;BME280;39559;48.630;9.162;2023-01-28T11:33:17;98245.81;;;0.26;100.00
498;BME280;39559;48.630;9.162;2023-01-28T11:35:56;98236.41;;;0.24;100.00
498;BME280;39559;48.630;9.162;2023-01-28T11:38:24;98240.84;;;0.38;100.00
498;BME280;39559;48.630;9.162;2023-01-28T11:40:51;98236.59;;;0.41;100.00
498;BME280;39559;48.630;9.162;2023-01-28T11:43:19;98235.63;;;0.31;100.00
498;BME280;39559;48.630;9.162;2023-01-28T11:52:03;98235.00;;;0.52;100.00
498;BME280;39559;48.630;9.162;2023-01-28T11:57:39;98229.97;;;0.61;100.00
498;BME280;39559;48.630;9.162;2023-01-28T12:02:52;98237.44;;;0.41;100.00
498;BME280;39559;48.630;9.162;2023-01-28T12:05:50;98229.78;;;0.43;100.00
498;BME280;39559;48.630;9.162;2023-01-28T12:08:39;98237.44;;;0.41;100.00
498;BME280;39559;48.630;9.162;2023-01-28T12:21:25;98235.66;;;0.34;100.00
498;BME280;39559;48.630;9.162;2023-01-28T12:26:48;98233.94;;;0.31;100.00
498;BME280;39559;48.630;9.162;2023-01-28T12:29:44;98236.47;;;0.30;100.00
498;BME280;39559;48.630;9.162;2023-01-28T12:42:57;98231.28;;;0.24;100.00
498;BME280;39559;48.630;9.162;2023-01-28T12:45:52;98234.63;;;0.15;100.00
498;BME280;39559;48.630;9.162;2023-01-28T12:56:11;98233.16;;;0.38;100.00
498;BME280;39559;48.630;9.162;2023-01-28T13:01:13;98236.25;;;0.10;100.00
498;BME280;39559;48.630;9.162;2023-01-28T13:06:15;98224.41;;;0.18;100.00
498;BME280;39559;48.630;9.162;2023-01-28T13:08:46;98223.50;;;0.10;100.00
498;BME280;39559;48.630;9.162;2023-01-28T13:11:14;98228.63;;;0.14;100.00
498;BME280;39559;48.630;9.162;2023-01-28T13:13:42;98226.81;;;0.03;100.00
498;BME280;39559;48.630;9.162;2023-01-28T13:16:10;98228.59;;;0.08;100.00
498;BME280;39559;48.630;9.162;2023-01-28T13:21:06;98236.31;;;0.16;100.00
498;BME280;39559;48.630;9.162;2023-01-28T13:25:25;98232.88;;;0.12;100.00
498;BME280;39559;48.630;9.162;2023-01-28T13:30:27;98227.72;;;0.08;100.00
498;BME280;39559;48.630;9.162;2023-01-28T13:33:04;98238.75;;;0.05;100.00
498;BME280;39559;48.630;9.162;2023-01-28T13:35:36;98241.31;;;0.07;100.00
498;BME280;39559;48.630;9.162;2023-01-28T13:38:16;98235.44;;;0.14;100.00
498;BME280;39559;48.630;9.162;2023-01-28T13:40:53;98230.41;;;0.22;100.00
498;BME280;39559;48.630;9.162;2023-01-28T13:45:56;98235.56;;;0.25;100.00
498;BME280;39559;48.630;9.162;2023-01-28T13:49:17;98236.53;;;0.33;100.00
498;BME280;39559;48.630;9.162;2023-01-28T13:54:23;98239.66;;;0.10;100.00
498;BME280;39559;48.630;9.162;2023-01-28T13:57:11;98239.06;;;0.31;100.00
498;BME280;39559;48.630;9.162;2023-01-28T14:16:43;98251.91;;;0.39;100.00
498;BME280;39559;48.630;9.162;2023-01-28T14:19:19;98256.03;;;0.28;100.00
498;BME280;39559;48.630;9.162;2023-01-28T14:21:48;98248.38;;;0.31;100.00
498;BME280;39559;48.630;9.162;2023-01-28T14:24:16;98259.59;;;0.41;100.00
498;BME280;39559;48.630;9.162;2023-01-28T14:27:05;98267.78;;;0.12;100.00
498;BME280;39559;48.630;9.162;2023-01-28T14:29:45;98274.72;;;0.25;100.00
498;BME280;39559;48.630;9.162;2023-01-28T14:32:22;98274.56;;;0.10;100.00
498;BME280;39559;48.630;9.162;2023-01-28T14:37:19;98273.03;;;0.27;100.00
498;BME280;39559;48.630;9.162;2023-01-28T14:39:51;98283.03;;;0.06;100.00
498;BME280;39559;48.630;9.162;2023-01-28T14:42:22;98276.19;;;0.03;100.00
498;BME280;39559;48.630;9.162;2023-01-28T14:45:12;98287.41;;;0.17;100.00
498;BME280;39559;48.630;9.162;2023-01-28T14:47:54;98282.94;;;-0.01;100.00
498;BME280;39559;48.630;9.162;2023-01-28T14:50:30;98285.41;;;-0.08;100.00
498;BME280;39559;48.630;9.162;2023-01-28T14:55:57;98292.47;;;0.11;100.00
498;BME280;39559;48.630;9.162;2023-01-28T14:58:38;98301.78;;;0.08;100.00
498;BME280;39559;48.630;9.162;2023-01-28T15:01:23;98301.78;;;0.08;100.00
498;BME280;39559;48.630;9.162;2023-01-28T15:03:49;98297.69;;;0.24;100.00
498;BME280;39559;48.630;9.162;2023-01-28T15:06:17;98303.38;;;-0.01;100.00
498;BME280;39559;48.630;9.162;2023-01-28T15:08:44;98312.69;;;-0.04;100.00
498;BME280;39559;48.630;9.162;2023-01-28T15:11:13;98304.34;;;0.08;100.00
498;BME280;39559;48.630;9.162;2023-01-28T15:13:47;98303.44;;;0.04;100.00
498;BME280;39559;48.630;9.162;2023-01-28T15:16:24;98313.56;;;-0.04;100.00
498;BME280;39559;48.630;9.162;2023-01-28T15:18:54;98312.69;;;-0.07;100.00
498;BME280;39559;48.630;9.162;2023-01-28T15:21:22;98308.69;;;0.18;100.00
498;BME280;39559;48.630;9.162;2023-01-28T15:25:23;98318.91;;;0.15;100.00
498;BME280;39559;48.630;9.162;2023-01-28T15:27:52;98318.81;;;0.09;100.00
498;BME280;39559;48.630;9.162;2023-01-28T15:30:22;98318.59;;;-0.08;100.00
498;BME280;39559;48.630;9.162;2023-01-28T15:33:03;98321.19;;;-0.07;100.00
498;BME280;39559;48.630;9.162;2023-01-28T15:35:30;98332.88;;;-0.23;100.00
498;BME280;39559;48.630;9.162;2023-01-28T15:37:56;98331.44;;;-0.02;100.00
498;BME280;39559;48.630;9.162;2023-01-28T15:40:22;98333.03;;;-0.10;100.00
498;BME280;39559;48.630;9.162;2023-01-28T15:42:51;98336.66;;;0.06;100.00
498;BME280;39559;48.630;9.162;2023-01-28T15:45:22;98344.09;;;-0.11;100.00
498;BME280;39559;48.630;9.162;2023-01-28T15:49:22;98343.06;;;-0.24;100.00
498;BME280;39559;48.630;9.162;2023-01-28T15:51:50;98342.41;;;-0.09;100.00
498;BME280;39559;48.630;9.162;2023-01-28T15:54:18;98344.72;;;-0.26;100.00
498;BME280;39559;48.630;9.162;2023-01-28T15:56:44;98355.06;;;-0.17;100.00
498;BME280;39559;48.630;9.162;2023-01-28T15:59:27;98350.81;;;-0.16;100.00
498;BME280;39559;48.630;9.162;2023-01-28T16:04:39;98354.16;;;-0.21;100.00
498;BME280;39559;48.630;9.162;2023-01-28T16:07:05;98353.28;;;-0.23;100.00
498;BME280;39559;48.630;9.162;2023-01-28T16:09:32;98351.94;;;0.03;100.00
498;BME280;39559;48.630;9.162;2023-01-28T16:13:27;98351.63;;;-0.19;100.00
498;BME280;39559;48.630;9.162;2023-01-28T16:15:55;98360.38;;;-0.03;100.00
498;BME280;39559;48.630;9.162;2023-01-28T16:20:59;98357.69;;;-0.14;100.00
498;BME280;39559;48.630;9.162;2023-01-28T16:23:27;98365.22;;;-0.22;100.00
498;BME280;39559;48.630;9.162;2023-01-28T16:26:19;98372.22;;;-0.08;100.00